createdAt,value
2018-12-15T07:21:25.690Z,0.08
2018-12-15T07:26:31.910Z,0.27
2018-12-15T07:31:37.711Z,0.46
2018-12-15T07:36:43.353Z,-0.15
2018-12-15T07:41:49.479Z,0.15
2018-12-15T07:46:55.215Z,0.11
2018-12-15T07:52:00.735Z,0.52
2018-12-15T07:57:06.658Z,0.41
2018-12-15T08:02:12.240Z,-0.04
2018-12-15T08:07:17.855Z,0.34
2018-12-15T08:12:27.853Z,0.33
2018-12-15T08:17:33.719Z,0.67
2018-12-15T08:22:38.731Z,-0.14
2018-12-15T08:27:43.898Z,0.05
2018-12-15T08:32:49.024Z,0.34
2018-12-15T08:37:54.454Z,0.16
2018-12-15T08:42:59.479Z,0.07
2018-12-15T08:48:06.051Z,0.13
2018-12-15T08:53:11.016Z,0.11
2018-12-15T08:58:16.438Z,0.29
2018-12-15T09:03:21.418Z,0.52
2018-12-15T09:08:26.460Z,-0.10
2018-12-15T09:13:31.699Z,0.04
2018-12-15T09:18:37.203Z,-0.01
2018-12-15T09:23:43.201Z,0.14
2018-12-15T09:28:48.490Z,0.06
2018-12-15T09:33:53.496Z,-0.08
2018-12-15T09:38:58.414Z,-0.47
2018-12-15T09:44:03.801Z,-0.45
2018-12-15T09:49:09.791Z,-0.35
2018-12-15T09:54:15.114Z,0.04
2018-12-15T09:59:20.555Z,0.12
2018-12-15T10:04:25.658Z,-0.05
2018-12-15T10:09:30.583Z,0.16
2018-12-15T10:14:35.843Z,-0.08
2018-12-15T10:19:40.944Z,0.02
2018-12-15T10:24:45.862Z,0.03
2018-12-15T10:29:55.877Z,0.20
2018-12-15T10:35:02.133Z,0.09
2018-12-15T10:40:08.825Z,-0.17
2018-12-15T10:45:16.398Z,-0.22
2018-12-15T10:50:22.009Z,0.34
2018-12-15T10:55:27.334Z,0.19
2018-12-15T11:04:53.616Z,-0.04
2018-12-15T11:09:58.803Z,-0.01
2018-12-15T11:15:05.291Z,-0.40
2018-12-15T11:20:10.924Z,0.10
2018-12-15T11:25:16.098Z,0.20
2018-12-15T11:30:21.123Z,-0.05
2018-12-15T11:35:26.951Z,0.05
2018-12-15T11:40:33.895Z,0.35
2018-12-15T11:45:40.704Z,0.58
2018-12-15T11:50:45.886Z,0.12
2018-12-15T11:55:50.909Z,0.36
2018-12-15T12:00:57.314Z,0.25
2018-12-15T12:06:02.793Z,0.39
2018-12-15T12:11:08.729Z,-0.14
2018-12-15T12:16:13.795Z,-0.02
2018-12-15T12:21:19.000Z,0.34
2018-12-15T12:26:24.114Z,0.56
2018-12-15T12:31:29.119Z,0.29
2018-12-15T12:36:35.702Z,0.23
2018-12-15T12:41:40.843Z,-0.22
2018-12-15T12:46:46.055Z,0.44
2018-12-15T12:51:51.159Z,0.13
2018-12-15T12:56:57.926Z,0.25
2018-12-15T13:02:04.429Z,0.11
2018-12-15T13:07:11.311Z,0.40
2018-12-15T13:12:16.377Z,-0.09
2018-12-15T13:17:21.505Z,-0.24
2018-12-15T13:22:27.723Z,0.22
2018-12-15T13:27:32.886Z,-0.10
2018-12-15T13:32:37.905Z,0.18
2018-12-15T13:42:54.702Z,-0.05
2018-12-15T13:48:00.647Z,-0.25
2018-12-15T13:53:06.422Z,-0.17
2018-12-15T13:58:11.559Z,0.09
2018-12-15T14:03:16.599Z,0.03
2018-12-15T14:08:21.655Z,0.24
2018-12-15T14:13:27.850Z,0.47
2018-12-15T14:18:33.097Z,0.65
2018-12-15T14:23:38.459Z,0.65
2018-12-15T14:28:43.713Z,0.88
2018-12-15T14:33:48.739Z,0.86
2018-12-15T14:38:53.975Z,0.51
2018-12-15T14:43:58.984Z,0.13
2018-12-15T14:49:04.074Z,0.26
2018-12-15T14:54:09.264Z,0.26
2018-12-15T15:04:24.828Z,0.39
2018-12-15T15:09:30.291Z,0.04
2018-12-15T15:14:36.237Z,0.38
2018-12-15T15:19:41.721Z,-0.18
2018-12-15T15:24:46.716Z,0.25
2018-12-15T15:29:53.061Z,-0.30
2018-12-15T15:34:58.870Z,-0.35
2018-12-15T15:40:06.956Z,-0.29
2018-12-15T15:45:13.028Z,0.01
2018-12-15T15:50:18.056Z,0.22
2018-12-15T15:55:23.638Z,0.14
2018-12-15T16:00:29.238Z,0.20
2018-12-15T16:05:34.257Z,0.44
2018-12-15T16:10:40.507Z,0.48
2018-12-15T16:15:46.022Z,0.54
2018-12-15T16:20:51.110Z,0.88
2018-12-15T16:25:56.186Z,0.53
2018-12-15T16:31:01.292Z,0.16
2018-12-15T16:36:06.672Z,0.59
2018-12-15T16:41:11.907Z,0.43
2018-12-15T16:46:17.810Z,0.48
2018-12-15T16:51:23.838Z,0.64
2018-12-15T16:56:30.036Z,0.96
2018-12-15T17:01:36.009Z,0.52
2018-12-15T17:06:41.117Z,0.44
2018-12-15T17:11:46.765Z,0.67
2018-12-15T17:16:52.726Z,0.24
2018-12-15T17:21:58.343Z,0.27
2018-12-15T17:27:04.338Z,0.24
2018-12-15T17:32:10.356Z,0.67
2018-12-15T17:37:16.624Z,0.34
2018-12-15T17:42:23.681Z,0.61
2018-12-15T17:47:28.823Z,0.59
2018-12-15T17:52:34.023Z,0.70
2018-12-15T17:57:40.114Z,0.11
2018-12-15T18:02:53.537Z,0.51
2018-12-15T18:07:58.649Z,0.40
2018-12-15T18:13:04.106Z,0.64
2018-12-15T18:23:21.280Z,0.76
2018-12-15T18:28:27.776Z,0.83
2018-12-15T18:33:39.073Z,0.46
2018-12-15T18:38:44.287Z,0.39
2018-12-15T18:43:50.179Z,0.53
2018-12-15T18:48:56.092Z,0.66
2018-12-15T18:54:01.798Z,0.69
2018-12-15T18:59:09.340Z,0.77
2018-12-15T19:04:17.256Z,0.42
2018-12-15T19:09:23.329Z,0.63
2018-12-15T19:14:29.604Z,0.67
2018-12-15T19:19:35.761Z,0.84
2018-12-15T19:24:42.281Z,0.98
2018-12-15T19:29:48.436Z,0.90
2018-12-15T19:34:54.681Z,0.87
2018-12-15T19:40:02.044Z,0.85
2018-12-15T19:45:09.458Z,0.72
2018-12-15T19:50:16.022Z,0.97
2018-12-15T19:55:21.498Z,0.87
2018-12-15T20:00:32.079Z,0.83
2018-12-15T20:05:37.676Z,1.01
2018-12-15T20:10:45.265Z,0.93
2018-12-15T20:15:51.958Z,1.12
2018-12-15T20:20:58.801Z,1.21
2018-12-15T20:26:06.258Z,1.16
2018-12-15T20:31:12.304Z,0.95
2018-12-15T20:36:18.304Z,1.14
2018-12-15T20:41:24.162Z,1.06
2018-12-15T20:46:32.114Z,1.06
2018-12-15T20:51:42.969Z,0.89
2018-12-15T20:56:47.802Z,0.64
2018-12-15T21:01:53.837Z,0.87
2018-12-15T21:07:00.025Z,0.64
2018-12-15T21:17:19.561Z,0.79
2018-12-15T21:22:24.667Z,0.76
2018-12-15T21:27:32.592Z,0.98
2018-12-15T21:32:37.916Z,1.04
2018-12-15T21:37:43.309Z,0.93
2018-12-15T21:42:49.289Z,0.87
2018-12-15T21:47:57.794Z,0.80
2018-12-15T21:53:02.597Z,0.89
2018-12-15T21:58:08.132Z,0.86
2018-12-15T22:03:13.627Z,0.88
2018-12-15T22:08:18.692Z,1.01
2018-12-15T22:13:23.847Z,0.97
2018-12-15T22:18:29.422Z,0.72
2018-12-15T22:23:35.307Z,0.85
2018-12-15T22:28:40.314Z,1.04
2018-12-15T22:33:45.512Z,1.15
2018-12-15T22:38:50.509Z,1.04
2018-12-15T22:43:58.138Z,1.33
2018-12-15T22:49:04.810Z,0.72
2018-12-15T22:54:10.447Z,0.86
2018-12-15T22:59:15.821Z,0.99
2018-12-15T23:04:21.006Z,0.90
2018-12-15T23:09:26.151Z,1.03
2018-12-15T23:14:32.328Z,0.91
2018-12-15T23:19:39.279Z,0.89
2018-12-15T23:24:45.519Z,0.89
2018-12-15T23:29:50.795Z,1.01
2018-12-15T23:34:56.271Z,0.90
2018-12-15T23:40:01.972Z,0.91
2018-12-15T23:45:09.189Z,0.86
2018-12-15T23:50:14.602Z,0.99
2018-12-15T23:55:24.274Z,0.98
